createdAt,value
2018-11-02T00:07:43.373Z,48.40
2018-11-02T00:17:48.301Z,48.10
2018-11-02T00:27:53.026Z,48.00
2018-11-02T00:37:57.647Z,47.90
2018-11-02T00:48:02.691Z,47.80
2018-11-02T00:58:08.403Z,47.90
2018-11-02T01:08:13.192Z,47.80
2018-11-02T01:18:17.903Z,47.80
2018-11-02T01:28:22.773Z,47.80
2018-11-02T01:38:27.499Z,48.40
2018-11-02T01:48:32.268Z,47.80
2018-11-02T01:58:36.883Z,47.90
2018-11-02T02:08:42.709Z,47.80
2018-11-02T02:18:47.382Z,47.80
2018-11-02T02:28:52.772Z,47.80
2018-11-02T02:38:57.471Z,47.80
2018-11-02T02:49:02.639Z,47.90
2018-11-02T02:59:08.011Z,47.80
2018-11-02T03:09:13.063Z,47.90
2018-11-02T03:19:18.066Z,47.90
2018-11-02T03:29:22.908Z,47.90
2018-11-02T03:39:27.606Z,47.90
2018-11-02T03:49:33.002Z,48.00
2018-11-02T03:59:37.809Z,48.70
2018-11-02T04:09:42.646Z,48.10
2018-11-02T04:19:47.602Z,48.10
2018-11-02T04:29:52.252Z,48.10
2018-11-02T04:39:56.944Z,48.80
2018-11-02T04:50:01.741Z,48.10
2018-11-02T05:00:09.137Z,48.10
2018-11-02T05:10:13.853Z,48.20
2018-11-02T05:20:19.124Z,48.20
2018-11-02T05:30:23.938Z,48.20
2018-11-02T05:40:28.757Z,48.30
2018-11-02T05:50:33.523Z,48.20
2018-11-02T06:00:38.491Z,48.20
2018-11-02T06:10:43.244Z,48.20
2018-11-02T06:20:47.997Z,48.10
2018-11-02T06:30:52.812Z,48.10
2018-11-02T06:40:57.524Z,48.20
2018-11-02T06:51:02.358Z,48.10
2018-11-02T07:01:07.866Z,48.10
2018-11-02T07:11:12.636Z,47.90
2018-11-02T07:21:17.752Z,47.90
2018-11-02T07:31:23.156Z,47.90
2018-11-02T07:41:27.903Z,47.90
2018-11-02T07:51:32.516Z,47.90
2018-11-02T08:01:37.283Z,48.00
2018-11-02T08:11:42.246Z,48.10
2018-11-02T08:21:46.983Z,47.50
2018-11-02T08:31:51.687Z,47.90
2018-11-02T08:41:56.415Z,44.70
2018-11-02T08:52:02.274Z,45.10
2018-11-02T09:02:07.953Z,45.30
2018-11-02T09:12:12.655Z,43.90
2018-11-02T09:22:17.992Z,43.50
2018-11-02T09:32:24.662Z,43.20
2018-11-02T09:42:29.371Z,42.90
2018-11-02T09:52:34.356Z,43.50
2018-11-02T10:02:40.176Z,43.70
2018-11-02T10:12:45.192Z,43.40
2018-11-02T10:22:52.726Z,43.70
2018-11-02T10:32:59.578Z,43.60
2018-11-02T10:43:08.224Z,43.50
2018-11-02T10:53:13.196Z,43.60
2018-11-02T11:03:18.808Z,43.20
2018-11-02T11:13:24.625Z,42.60
2018-11-02T11:23:28.836Z,42.30
2018-11-02T11:33:34.976Z,42.40
2018-11-02T11:43:40.012Z,43.10
2018-11-02T11:53:45.895Z,42.60
2018-11-02T12:03:50.571Z,42.70
2018-11-02T12:13:55.267Z,43.10
2018-11-02T14:39:41.430Z,46.70
2018-11-02T14:49:46.308Z,47.00
2018-11-02T14:59:52.016Z,46.90
2018-11-02T15:09:56.679Z,47.50
2018-11-02T15:20:01.563Z,46.80
2018-11-02T15:30:10.132Z,46.80
2018-11-02T15:40:15.234Z,46.10
2018-11-02T15:50:21.584Z,46.20
2018-11-02T16:00:28.423Z,46.50
2018-11-02T16:10:34.129Z,46.80
2018-11-02T16:20:39.098Z,46.70
2018-11-02T16:30:46.895Z,47.70
2018-11-02T16:40:51.832Z,48.20
2018-11-02T16:50:56.651Z,48.50
2018-11-02T17:01:01.576Z,48.20
2018-11-02T17:11:07.205Z,48.30
2018-11-02T17:21:12.140Z,48.50
2018-11-02T17:31:18.002Z,49.30
2018-11-02T17:41:22.763Z,48.80
2018-11-02T17:51:28.332Z,49.40
2018-11-02T18:01:33.140Z,50.20
2018-11-02T18:11:38.230Z,50.60
2018-11-02T18:21:42.960Z,52.00
2018-11-02T18:31:50.365Z,52.30
2018-11-02T18:41:55.688Z,52.70
2018-11-02T18:52:00.383Z,52.80
2018-11-02T19:02:08.043Z,50.10
2018-11-02T19:12:13.003Z,50.30
2018-11-02T19:22:18.802Z,48.70
2018-11-02T19:32:23.804Z,49.20
2018-11-02T19:42:28.851Z,49.80
2018-11-02T19:52:33.744Z,49.80
2018-11-02T20:02:40.826Z,49.70
2018-11-02T20:12:46.104Z,50.50
2018-11-02T20:22:52.712Z,51.60
2018-11-02T20:32:58.701Z,51.80
2018-11-02T20:43:03.589Z,52.00
2018-11-02T20:53:08.595Z,51.80
2018-11-02T21:03:13.403Z,51.70
2018-11-02T21:13:18.216Z,51.60
2018-11-02T21:23:24.443Z,51.70
2018-11-02T21:33:29.435Z,51.80
2018-11-02T21:43:34.287Z,51.70
2018-11-02T21:53:41.363Z,51.70
2018-11-02T22:03:48.313Z,51.70
2018-11-02T22:13:53.814Z,51.70
2018-11-02T22:23:59.501Z,51.70
2018-11-02T22:34:04.303Z,51.90
2018-11-02T22:44:10.035Z,52.00
2018-11-02T22:54:17.603Z,51.90
2018-11-02T23:04:24.506Z,51.90
2018-11-02T23:14:29.473Z,51.90
2018-11-02T23:24:34.410Z,51.90
2018-11-02T23:34:40.272Z,51.80
2018-11-02T23:44:45.124Z,51.80
2018-11-02T23:54:49.878Z,51.80
